KALB/ALB METAR and TAF weather

Enter ICAO airport designator
Station Type Date Time Source
KALB METAR 2024/05/28 22:51 UTC NOAA

KALB 282251Z 22008KT 10SM FEW070 BKN110 BKN200 19/13 A2975 RMK AO2 RAE45 SLP072 P0000 T01940133


Station Type Date Time Source
KALB Decoded METAR 2024/05/28 22:51 UTC NOAA

ALBANY INTERNATIONAL AIRPORT, NY, United States (KALB) 42-45N 73-48W
May 28, 2024 - 06:51 PM EDT / 2024.05.28 2251 UTC
Wind: from the SW (220 degrees) at 9 MPH (8 KT):0
Visibility: 10 mile(s):0
Sky conditions: mostly cloudy
Precipitation last hour: A trace
Temperature: 66.9 F (19.4 C)
Dew Point: 55.9 F (13.3 C)
Relative Humidity: 67%
Pressure (altimeter): 29.75 in. Hg (1007 hPa)
ob: KALB 282251Z 22008KT 10SM FEW070 BKN110 BKN200 19/13 A2975 RMK AO2 RAE45 SLP072 P0000 T01940133
cycle: 23

Station Type Date Time Source
KALB TAF 2024/05/28 18:22 UTC NOAA